Time;durP1;ratioP1;P1;durP2;ratioP2;P2;SDS_P1;SDS_P2;PMS_P1;PMS_P2;Temp;Humidity;BMP_temperature;BMP_pressure;BME280_temperature;BME280_humidity;BME280_pressure;Samples;Min_cycle;Max_cycle;Signal;HPM_P1;HPM_P2
2023/09/06 00:01:47;;;;;;;0.10;0.10;;;;;;;15.72;100.00;100586.75;4977899;28;21488;-91
2023/09/06 00:04:12;;;;;;;0.10;0.10;;;;;;;15.83;100.00;100591.91;4979329;28;20045;-91
2023/09/06 00:06:38;;;;;;;0.40;0.40;;;;;;;15.81;100.00;100580.41;4994760;28;20485;-92
2023/09/06 00:09:04;;;;;;;0.20;0.20;;;;;;;15.76;100.00;100598.56;4977946;28;20506;-91
2023/09/06 00:11:30;;;;;;;1.00;0.70;;;;;;;15.69;100.00;100593.25;4963213;28;20034;-91
2023/09/06 00:13:55;;;;;;;1.05;0.95;;;;;;;15.73;100.00;100593.88;4979083;28;20038;-93
2023/09/06 00:16:21;;;;;;;0.75;0.47;;;;;;;15.75;100.00;100593.44;4960784;28;20038;-92
2023/09/06 00:18:46;;;;;;;0.30;0.30;;;;;;;15.70;100.00;100589.22;4993036;28;20526;-92
2023/09/06 00:21:12;;;;;;;0.32;0.32;;;;;;;15.77;100.00;100593.75;4960566;28;20096;-92
2023/09/06 00:23:38;;;;;;;0.20;0.20;;;;;;;15.78;100.00;100596.09;4959750;28;20569;-92
2023/09/06 00:26:03;;;;;;;0.20;0.20;;;;;;;15.75;100.00;100596.22;4976294;28;20121;-94
2023/09/06 00:28:29;;;;;;;0.00;0.00;;;;;;;15.71;100.00;100593.56;4975470;28;20049;-93
2023/09/06 00:30:57;;;;;;;2.70;1.67;;;;;;;15.76;100.00;100604.16;4976806;28;20057;-91
2023/09/06 00:33:26;;;;;;;0.28;0.28;;;;;;;15.74;100.00;100584.25;4979060;28;20047;-92
2023/09/06 00:35:52;;;;;;;0.30;0.30;;;;;;;15.72;100.00;100586.75;4973465;28;20046;-92
2023/09/06 00:38:17;;;;;;;0.05;0.05;;;;;;;15.76;100.00;100581.78;4969785;28;20049;-93
2023/09/06 00:40:49;;;;;;;0.20;0.20;;;;;;;15.76;100.00;100587.38;4963566;28;20054;-93
2023/09/06 00:43:15;;;;;;;0.65;0.65;;;;;;;15.66;100.00;100587.78;4957939;28;20034;-92
2023/09/06 00:45:44;;;;;;;1.92;0.52;;;;;;;15.66;100.00;100591.38;4961854;28;20050;-92
2023/09/06 00:48:13;;;;;;;0.40;0.40;;;;;;;15.63;100.00;100589.50;4975477;28;20046;-92
2023/09/06 00:50:40;;;;;;;0.95;0.90;;;;;;;15.63;100.00;100592.28;4974640;28;20535;-92
2023/09/06 00:53:08;;;;;;;0.95;0.65;;;;;;;15.56;100.00;100595.38;4956983;28;20042;-93
2023/09/06 00:55:34;;;;;;;1.27;0.60;;;;;;;15.54;100.00;100597.81;4957168;28;20040;-93
2023/09/06 00:58:00;;;;;;;0.10;0.10;;;;;;;15.51;100.00;100598.75;4977199;28;20042;-92
2023/09/06 01:00:26;;;;;;;0.25;0.25;;;;;;;15.46;100.00;100588.13;4961319;28;20418;-92
2023/09/06 01:02:52;;;;;;;0.47;0.47;;;;;;;15.50;100.00;100599.19;4961265;28;20077;-92
2023/09/06 01:05:19;;;;;;;0.65;0.35;;;;;;;15.50;100.00;100596.41;4978254;28;20080;-93
2023/09/06 01:07:54;;;;;;;0.20;0.17;;;;;;;15.49;100.00;100597.63;4959397;28;20042;-92
2023/09/06 01:10:20;;;;;;;0.20;0.20;;;;;;;15.46;100.00;100582.53;4959795;28;20039;-91
2023/09/06 01:12:46;;;;;;;0.75;0.75;;;;;;;15.46;100.00;100590.91;4960333;28;20097;-93
2023/09/06 01:15:12;;;;;;;2.17;0.93;;;;;;;15.46;100.00;100590.91;4992216;28;20038;-93
2023/09/06 01:17:39;;;;;;;0.22;0.22;;;;;;;15.41;100.00;100583.91;4960820;28;20795;-93
2023/09/06 01:20:18;;;;;;;1.38;0.47;;;;;;;15.41;100.00;100578.31;4973856;28;20049;-92
2023/09/06 01:22:54;;;;;;;1.33;1.15;;;;;;;15.46;100.00;100588.13;4970484;28;20069;-93
2023/09/06 01:25:20;;;;;;;0.57;0.47;;;;;;;15.42;100.00;100590.28;4977158;28;20051;-93
2023/09/06 01:27:46;;;;;;;0.65;0.60;;;;;;;15.35;100.00;100568.97;4960469;28;20054;-93
2023/09/06 01:30:12;;;;;;;0.38;0.38;;;;;;;15.35;100.00;100584.94;4975234;28;20081;-93
2023/09/06 01:32:37;;;;;;;0.60;0.60;;;;;;;15.33;100.00;100579.03;4961404;28;20236;-93
2023/09/06 01:35:06;;;;;;;0.55;0.47;;;;;;;15.26;100.00;100570.91;4956905;28;20756;-92
2023/09/06 01:37:35;;;;;;;1.10;0.82;;;;;;;15.22;100.00;100570.25;4985684;28;20185;-92
2023/09/06 01:40:00;;;;;;;0.35;0.30;;;;;;;15.25;100.00;100569.34;4946414;28;20050;-93
2023/09/06 01:42:27;;;;;;;1.48;1.23;;;;;;;15.22;100.00;100564.69;4977273;28;20050;-92
2023/09/06 01:44:53;;;;;;;1.50;0.75;;;;;;;15.22;100.00;100570.25;4978572;28;20034;-92
2023/09/06 01:47:19;;;;;;;0.50;0.50;;;;;;;15.26;100.00;100573.72;4952393;28;20165;-92
2023/09/06 01:49:44;;;;;;;0.25;0.25;;;;;;;15.28;100.00;100574.03;4993419;28;20640;-92
2023/09/06 01:52:10;;;;;;;0.47;0.47;;;;;;;15.21;100.00;100568.69;4961781;28;20109;-92
2023/09/06 01:54:36;;;;;;;1.00;0.63;;;;;;;15.24;100.00;100573.41;4978053;28;20042;-92
2023/09/06 01:57:02;;;;;;;0.43;0.43;;;;;;;15.29;100.00;100573.56;4975196;28;20074;-93
2023/09/06 01:59:27;;;;;;;1.02;0.88;;;;;;;15.33;100.00;100573.44;4961916;28;20046;-92
2023/09/06 02:01:54;;;;;;;0.73;0.73;;;;;;;15.31;100.00;100557.13;4952984;28;20132;-92
2023/09/06 02:04:20;;;;;;;1.85;0.55;;;;;;;15.28;100.00;100557.28;4974448;28;20042;-92
2023/09/06 02:06:46;;;;;;;1.33;1.23;;;;;;;15.31;100.00;100559.16;4944022;28;20053;-92
2023/09/06 02:09:11;;;;;;;0.30;0.28;;;;;;;15.25;100.00;100544.19;4959198;28;20093;-92
2023/09/06 02:11:37;;;;;;;0.28;0.28;;;;;;;15.30;100.00;100549.19;4958270;28;20042;-92
2023/09/06 02:14:02;;;;;;;0.35;0.30;;;;;;;15.21;100.00;100541.53;4960367;28;20563;-92
2023/09/06 02:16:30;;;;;;;1.50;1.30;;;;;;;15.24;100.00;100556.63;4974991;28;20038;-92
2023/09/06 02:18:56;;;;;;;0.52;0.52;;;;;;;15.16;100.00;100539.34;4961950;28;20042;-93
2023/09/06 02:21:22;;;;;;;0.20;0.20;;;;;;;15.16;100.00;100546.94;4972755;28;21587;-92
2023/09/06 02:23:47;;;;;;;0.40;0.40;;;;;;;15.16;100.00;100549.75;4974028;28;20038;-92
2023/09/06 02:26:13;;;;;;;0.32;0.30;;;;;;;15.09;100.00;100552.78;4961631;28;20073;-92
2023/09/06 02:28:38;;;;;;;0.43;0.43;;;;;;;15.02;100.00;100544.66;4956890;28;20038;-93
2023/09/06 02:31:04;;;;;;;0.10;0.10;;;;;;;15.08;100.00;100551.25;4977700;28;20518;-92
2023/09/06 02:33:30;;;;;;;1.08;0.45;;;;;;;15.06;100.00;100551.69;4959474;28;20525;-93
2023/09/06 02:35:55;;;;;;;0.70;0.57;;;;;;;15.01;100.00;100554.28;4960040;28;21676;-94
2023/09/06 02:38:21;;;;;;;0.63;0.63;;;;;;;14.96;100.00;100558.47;4957946;28;20061;-92
2023/09/06 02:40:46;;;;;;;0.40;0.40;;;;;;;14.91;100.00;100545.06;4956625;28;20046;-91
2023/09/06 02:43:13;;;;;;;0.20;0.20;;;;;;;14.83;100.00;100550.13;4958619;28;20457;-92
2023/09/06 02:45:39;;;;;;;0.45;0.32;;;;;;;14.87;100.00;100559.16;4961088;28;20042;-93
2023/09/06 02:48:13;;;;;;;0.60;0.40;;;;;;;14.91;100.00;100567.41;4973413;28;20061;-94
2023/09/06 02:50:40;;;;;;;0.13;0.13;;;;;;;14.87;100.00;100553.59;4954106;28;20790;-92
2023/09/06 02:53:15;;;;;;;0.10;0.10;;;;;;;14.88;100.00;100566.28;4965810;28;20121;-92
2023/09/06 02:55:41;;;;;;;0.80;0.80;;;;;;;14.88;100.00;100557.91;4950012;28;20035;-92
2023/09/06 02:58:07;;;;;;;0.05;0.05;;;;;;;14.92;100.00;100552.97;4964005;28;20046;-92
2023/09/06 03:00:36;;;;;;;1.40;1.30;;;;;;;14.87;100.00;100563.97;4963710;28;20042;-91
2023/09/06 03:03:15;;;;;;;0.52;0.52;;;;;;;14.88;100.00;100566.28;4979460;28;20049;-92
2023/09/06 03:05:42;;;;;;;0.38;0.38;;;;;;;14.86;100.00;100559.63;4961249;28;20128;-93
2023/09/06 03:08:10;;;;;;;0.30;0.30;;;;;;;14.85;100.00;100563.63;4959994;28;20087;-93
2023/09/06 03:10:35;;;;;;;0.82;0.35;;;;;;;14.78;100.00;100559.09;4978099;28;20106;-91
2023/09/06 03:13:01;;;;;;;0.52;0.52;;;;;;;14.78;100.00;100575.06;4960541;28;20074;-92
2023/09/06 03:15:28;;;;;;;1.27;0.68;;;;;;;14.71;100.00;100569.75;4962455;28;20061;-93
2023/09/06 03:17:58;;;;;;;0.30;0.30;;;;;;;14.49;100.00;100558.50;4978294;28;20627;-92
2023/09/06 03:20:42;;;;;;;0.47;0.47;;;;;;;14.55;100.00;100567.91;4960158;28;20050;-92
2023/09/06 03:23:19;;;;;;;0.60;0.60;;;;;;;14.45;100.00;100563.44;4993801;28;20042;-92
2023/09/06 03:25:55;;;;;;;1.17;0.60;;;;;;;14.45;100.00;100569.03;4980530;28;20050;-92
2023/09/06 03:28:23;;;;;;;1.25;0.43;;;;;;;14.43;100.00;100577.09;4976695;28;20049;-92
2023/09/06 03:30:49;;;;;;;1.17;0.38;;;;;;;14.40;100.00;100573.16;4965811;28;20038;-93
2023/09/06 03:33:16;;;;;;;1.08;0.60;;;;;;;14.40;100.00;100572.38;4962292;28;20120;-93
2023/09/06 03:35:45;;;;;;;0.63;0.63;;;;;;;14.43;100.00;100571.50;4976191;28;20042;-93
2023/09/06 03:38:15;;;;;;;0.22;0.22;;;;;;;14.44;100.00;100579.41;4955793;28;20069;-92
2023/09/06 03:40:42;;;;;;;1.00;0.95;;;;;;;14.44;100.00;100573.81;4980554;28;20050;-92
2023/09/06 03:43:19;;;;;;;0.45;0.30;;;;;;;14.33;100.00;100572.59;4977677;28;20040;-92
2023/09/06 03:45:55;;;;;;;0.38;0.30;;;;;;;14.23;100.00;100579.31;4962963;28;20136;-93
2023/09/06 03:48:23;;;;;;;0.65;0.43;;;;;;;14.16;100.00;100571.16;4977985;28;20070;-91
2023/09/06 03:50:57;;;;;;;0.50;0.50;;;;;;;14.11;100.00;100572.53;4978756;28;20067;-92
2023/09/06 03:53:25;;;;;;;0.68;0.68;;;;;;;14.08;100.00;100573.41;4971067;28;20042;-91
2023/09/06 03:55:52;;;;;;;0.65;0.65;;;;;;;14.06;100.00;100580.69;4978632;28;20084;-91
2023/09/06 03:58:18;;;;;;;1.73;0.77;;;;;;;13.98;100.00;100575.34;4965335;28;20051;-92
2023/09/06 04:00:44;;;;;;;1.05;0.88;;;;;;;14.00;100.00;100569.28;4965590;28;20402;-93
2023/09/06 04:03:22;;;;;;;0.43;0.43;;;;;;;14.03;100.00;100562.84;4969738;28;20051;-92
2023/09/06 04:05:50;;;;;;;0.30;0.30;;;;;;;13.99;100.00;100568.50;4966668;28;20070;-92
2023/09/06 04:08:19;;;;;;;0.47;0.47;;;;;;;13.97;100.00;100562.63;4963502;28;20049;-92
2023/09/06 04:10:49;;;;;;;0.50;0.50;;;;;;;14.03;100.00;100571.97;4997838;28;20042;-91
2023/09/06 04:13:16;;;;;;;0.30;0.30;;;;;;;14.05;100.00;100565.16;4989867;28;20066;-90
2023/09/06 04:15:44;;;;;;;0.20;0.20;;;;;;;14.05;100.00;100565.16;4968372;28;20117;-91
2023/09/06 04:18:11;;;;;;;0.88;0.70;;;;;;;14.09;100.00;100569.41;4977562;28;20043;-93
2023/09/06 04:20:39;;;;;;;0.35;0.25;;;;;;;14.07;100.00;100565.50;4967981;28;20050;-93
2023/09/06 04:23:08;;;;;;;0.60;0.60;;;;;;;14.07;100.00;100569.09;4985078;28;20459;-92
2023/09/06 04:25:44;;;;;;;2.38;1.35;;;;;;;14.07;100.00;100565.50;4981920;28;20097;-91
2023/09/06 04:28:15;;;;;;;0.20;0.20;;;;;;;14.12;100.00;100578.88;4956919;28;20038;-92
2023/09/06 04:30:43;;;;;;;0.47;0.47;;;;;;;14.12;100.00;100570.50;4986977;28;20402;-93
2023/09/06 04:33:12;;;;;;;0.30;0.30;;;;;;;14.07;100.00;100571.88;4963480;28;20065;-93
2023/09/06 04:35:46;;;;;;;0.75;0.75;;;;;;;13.99;100.00;100570.53;4965335;28;20038;-92
2023/09/06 04:38:15;;;;;;;0.52;0.50;;;;;;;14.03;100.00;100583.13;4972865;28;20042;-90
2023/09/06 04:40:43;;;;;;;1.27;0.93;;;;;;;13.96;100.00;100571.41;4970380;28;20045;-89
2023/09/06 04:43:16;;;;;;;0.98;0.80;;;;;;;13.91;100.00;100563.63;4969542;28;20042;-90
2023/09/06 04:45:43;;;;;;;0.28;0.28;;;;;;;13.85;100.00;100582.91;4970976;28;20110;-90
2023/09/06 04:48:11;;;;;;;0.38;0.38;;;;;;;13.87;100.00;100579.69;4984875;28;20454;-89
2023/09/06 04:50:38;;;;;;;0.40;0.40;;;;;;;13.88;100.00;100582.03;4974393;28;20703;-90
2023/09/06 04:53:04;;;;;;;0.68;0.68;;;;;;;13.90;100.00;100579.56;4998013;28;20039;-91
2023/09/06 04:55:35;;;;;;;0.47;0.40;;;;;;;13.93;100.00;100578.69;4974109;28;20043;-90
2023/09/06 04:58:07;;;;;;;0.10;0.10;;;;;;;14.02;100.00;100584.38;4973684;28;20372;-89
2023/09/06 05:00:37;;;;;;;0.25;0.25;;;;;;;14.07;100.00;100583.03;4977804;28;20456;-91
2023/09/06 05:03:08;;;;;;;0.68;0.35;;;;;;;14.13;100.00;100586.81;4961333;28;20034;-91
2023/09/06 05:05:38;;;;;;;0.55;0.55;;;;;;;14.20;100.00;100580.19;4979734;28;20052;-90
2023/09/06 05:08:05;;;;;;;0.20;0.20;;;;;;;14.32;100.00;100582.97;4966679;28;20449;-90
2023/09/06 05:10:31;;;;;;;0.75;0.75;;;;;;;14.42;100.00;100590.25;4952887;28;20030;-91
2023/09/06 05:12:57;;;;;;;0.35;0.35;;;;;;;14.53;100.00;100589.88;4964310;28;20045;-90
2023/09/06 05:15:23;;;;;;;0.75;0.70;;;;;;;14.60;100.00;100586.84;4965155;28;20043;-91
2023/09/06 05:17:49;;;;;;;0.47;0.47;;;;;;;14.61;100.00;100585.63;4983732;28;20032;-91
2023/09/06 05:20:33;;;;;;;0.30;0.30;;;;;;;14.71;100.00;100590.06;4951705;28;20052;-90
2023/09/06 05:23:05;;;;;;;1.40;0.98;;;;;;;14.80;100.00;100595.72;4982148;28;20100;-90
2023/09/06 05:25:33;;;;;;;1.65;1.38;;;;;;;14.88;100.00;100597.03;4963615;28;20059;-90
2023/09/06 05:28:04;;;;;;;0.47;0.47;;;;;;;15.04;100.00;100598.09;4965913;28;20046;-89
2023/09/06 05:30:31;;;;;;;0.20;0.20;;;;;;;15.22;100.00;100604.59;4975643;28;20623;-89
2023/09/06 05:32:59;;;;;;;0.35;0.35;;;;;;;15.37;100.00;100599.22;4978769;28;20121;-89
2023/09/06 05:35:26;;;;;;;0.57;0.55;;;;;;;15.57;100.00;100601.75;4968215;28;20128;-91
2023/09/06 05:37:52;;;;;;;0.40;0.40;;;;;;;15.74;100.00;100601.03;4983368;28;20049;-90
2023/09/06 05:40:30;;;;;;;0.70;0.60;;;;;;;15.90;100.00;100591.63;4964183;28;20047;-90
2023/09/06 05:42:57;;;;;;;0.98;0.98;;;;;;;16.18;100.00;100589.69;4982370;28;20062;-91
2023/09/06 05:45:23;;;;;;;0.50;0.45;;;;;;;16.51;100.00;100604.72;4971590;28;20042;-88
2023/09/06 05:47:53;;;;;;;1.23;0.95;;;;;;;16.66;100.00;100597.28;4967596;28;20418;-89
2023/09/06 05:50:19;;;;;;;0.20;0.20;;;;;;;16.91;100.00;100613.03;4991659;28;20038;-89
2023/09/06 05:52:47;;;;;;;0.82;0.60;;;;;;;17.15;100.00;100613.19;4967698;28;20042;-90
2023/09/06 05:55:13;;;;;;;0.25;0.25;;;;;;;17.43;100.00;100609.09;4975875;28;20123;-90
2023/09/06 05:57:38;;;;;;;0.73;0.63;;;;;;;17.73;100.00;100606.56;4988545;28;20115;-89
2023/09/06 06:00:15;;;;;;;0.30;0.30;;;;;;;17.99;100.00;100604.91;4989359;28;20038;-88
2023/09/06 06:02:49;;;;;;;0.47;0.47;;;;;;;18.32;100.00;100604.91;4987184;28;20050;-89
2023/09/06 06:05:18;;;;;;;1.30;1.10;;;;;;;18.62;100.00;100617.84;4983100;28;20585;-88
2023/09/06 06:07:44;;;;;;;1.40;0.93;;;;;;;18.83;100.00;100607.56;4982705;28;20046;-89
2023/09/06 06:10:12;;;;;;;0.88;0.85;;;;;;;19.05;100.00;100610.78;4964051;28;20058;-89
2023/09/06 06:12:39;;;;;;;0.77;0.68;;;;;;;19.39;100.00;100621.44;4974954;28;20043;-89
2023/09/06 06:15:09;;;;;;;1.30;0.50;;;;;;;19.65;100.00;100618.09;4985327;28;20062;-89
2023/09/06 06:17:35;;;;;;;1.55;1.45;;;;;;;19.87;100.00;100618.44;4970574;28;20524;-92
2023/09/06 06:20:01;;;;;;;0.00;0.00;;;;;;;19.83;100.00;100623.50;4968692;28;20046;-90
2023/09/06 06:22:27;;;;;;;0.50;0.50;;;;;;;19.96;100.00;100623.97;4968357;28;20047;-91
2023/09/06 06:24:52;;;;;;;0.22;0.22;;;;;;;20.09;100.00;100606.75;4970471;28;20047;-91
2023/09/06 06:27:18;;;;;;;0.50;0.50;;;;;;;20.30;100.00;100628.88;4953461;28;20544;-92
2023/09/06 06:29:43;;;;;;;0.52;0.35;;;;;;;20.55;100.00;100643.56;4960928;28;20045;-92
2023/09/06 06:32:09;;;;;;;1.00;0.70;;;;;;;20.60;100.00;100623.13;4953426;28;20051;-91
2023/09/06 06:34:38;;;;;;;1.48;1.33;;;;;;;20.84;100.00;100632.16;4982632;28;20050;-90
2023/09/06 06:37:05;;;;;;;0.75;0.70;;;;;;;20.78;100.00;100645.44;4971185;28;20051;-90
2023/09/06 06:39:31;;;;;;;0.77;0.77;;;;;;;20.87;100.00;100631.94;4986275;28;20046;-90
2023/09/06 06:41:56;;;;;;;0.68;0.68;;;;;;;20.97;100.00;100641.06;4960293;28;20527;-89
2023/09/06 06:44:30;;;;;;;0.52;0.52;;;;;;;21.20;100.00;100648.53;4968635;28;20573;-92
2023/09/06 06:46:56;;;;;;;0.30;0.30;;;;;;;21.44;100.00;100644.66;4958353;28;20046;-91
2023/09/06 06:49:21;;;;;;;1.65;0.57;;;;;;;21.71;100.00;100649.81;4981300;28;20115;-90
2023/09/06 06:51:47;;;;;;;0.50;0.50;;;;;;;21.91;100.00;100655.41;4961464;28;20489;-91
2023/09/06 06:54:14;;;;;;;0.50;0.50;;;;;;;22.00;100.00;100649.56;4968243;28;20105;-91
2023/09/06 06:56:40;;;;;;;0.50;0.50;;;;;;;22.11;100.00;100655.34;4971715;28;20057;-91
2023/09/06 06:59:07;;;;;;;0.85;0.52;;;;;;;22.33;100.00;100658.31;4969390;28;20039;-91
2023/09/06 07:01:33;;;;;;;2.05;0.90;;;;;;;22.48;94.53;100651.72;4972114;28;20500;-91
2023/09/06 07:03:59;;;;;;;1.35;0.90;;;;;;;22.82;96.33;100653.47;4952350;28;20160;-91
2023/09/06 07:06:25;;;;;;;0.47;0.47;;;;;;;23.08;96.09;100654.13;4984773;28;20034;-91
2023/09/06 07:08:52;;;;;;;2.20;0.73;;;;;;;23.21;91.49;100668.53;4986166;28;20042;-91
2023/09/06 07:11:20;;;;;;;0.50;0.50;;;;;;;23.37;89.90;100652.16;4970495;28;20046;-91
2023/09/06 07:13:47;;;;;;;0.65;0.65;;;;;;;23.49;86.97;100660.19;4948723;28;20051;-91
2023/09/06 07:16:17;;;;;;;0.93;0.68;;;;;;;23.31;86.21;100665.50;4983963;28;20043;-92
2023/09/06 07:18:43;;;;;;;0.30;0.30;;;;;;;23.58;84.84;100662.75;4949913;28;20072;-91
2023/09/06 07:21:09;;;;;;;0.55;0.55;;;;;;;23.59;70.93;100658.66;4940170;28;20495;-91
2023/09/06 07:23:35;;;;;;;0.60;0.57;;;;;;;23.82;71.85;100665.09;4968220;28;20129;-92
2023/09/06 07:26:01;;;;;;;0.38;0.32;;;;;;;23.96;71.32;100669.75;4968324;28;20043;-91
2023/09/06 07:28:44;;;;;;;0.75;0.55;;;;;;;24.11;71.55;100675.94;4973181;28;20125;-91
2023/09/06 07:31:10;;;;;;;1.20;1.10;;;;;;;23.98;70.79;100675.66;4983524;28;20046;-91
2023/09/06 07:33:36;;;;;;;0.40;0.40;;;;;;;24.29;72.52;100665.38;4981912;28;20046;-92
2023/09/06 07:36:02;;;;;;;0.60;0.60;;;;;;;24.41;72.26;100670.53;4955907;28;20049;-91
2023/09/06 07:38:27;;;;;;;0.93;0.93;;;;;;;24.57;71.10;100666.88;4989254;28;20042;-91
2023/09/06 07:41:05;;;;;;;1.67;1.15;;;;;;;24.63;67.14;100661.97;4969833;28;20070;-91
2023/09/06 07:43:31;;;;;;;0.65;0.65;;;;;;;24.93;68.11;100672.72;5001154;28;20495;-92
2023/09/06 07:45:58;;;;;;;1.27;0.88;;;;;;;25.08;64.17;100668.28;4944262;28;20046;-94
2023/09/06 07:48:28;;;;;;;0.65;0.45;;;;;;;25.10;66.44;100662.09;4981503;28;20070;-90
2023/09/06 07:50:55;;;;;;;0.30;0.30;;;;;;;25.33;65.31;100669.19;4959559;28;20054;-91
2023/09/06 07:53:20;;;;;;;0.65;0.65;;;;;;;25.66;63.64;100667.47;4955763;28;20039;-92
2023/09/06 07:55:46;;;;;;;0.45;0.43;;;;;;;25.49;63.23;100676.06;4970734;28;20045;-92
2023/09/06 07:58:13;;;;;;;1.33;1.20;;;;;;;25.82;63.08;100669.44;4987263;28;20069;-91
2023/09/06 08:00:40;;;;;;;0.45;0.45;;;;;;;25.90;60.69;100676.84;4956986;28;20144;-91
2023/09/06 08:03:06;;;;;;;2.45;1.00;;;;;;;26.02;61.11;100671.06;4967712;28;20051;-92
2023/09/06 08:05:32;;;;;;;0.77;0.77;;;;;;;25.96;60.41;100657.69;4970143;28;20049;-93
2023/09/06 08:07:58;;;;;;;0.45;0.45;;;;;;;25.75;60.21;100665.09;4971625;28;20046;-92
2023/09/06 08:10:24;;;;;;;0.63;0.50;;;;;;;26.15;60.38;100669.16;4976072;28;21099;-91
2023/09/06 08:12:51;;;;;;;0.45;0.45;;;;;;;26.22;59.98;100673.50;4972982;28;20046;-91
2023/09/06 08:15:17;;;;;;;0.43;0.30;;;;;;;26.15;57.96;100666.31;4965275;28;20265;-91
2023/09/06 08:17:47;;;;;;;0.45;0.38;;;;;;;26.59;57.37;100673.69;4989247;28;20058;-91
2023/09/06 08:20:14;;;;;;;1.13;0.90;;;;;;;26.31;55.28;100681.72;4973936;28;20526;-92
2023/09/06 08:22:45;;;;;;;0.50;0.50;;;;;;;26.51;53.57;100686.94;4995972;28;20081;-93
2023/09/06 08:25:12;;;;;;;0.82;0.73;;;;;;;26.63;53.71;100667.69;4974891;28;20031;-92
2023/09/06 08:27:37;;;;;;;0.63;0.63;;;;;;;26.76;52.60;100671.41;4966370;28;20376;-92
2023/09/06 08:30:04;;;;;;;0.65;0.60;;;;;;;26.73;50.65;100672.47;4971044;28;20047;-92
2023/09/06 08:32:30;;;;;;;0.38;0.30;;;;;;;26.77;50.66;100678.63;4969713;28;20043;-93
2023/09/06 08:34:57;;;;;;;0.90;0.73;;;;;;;27.06;50.22;100670.56;4959425;28;20054;-90
2023/09/06 08:37:22;;;;;;;2.17;0.90;;;;;;;26.89;51.25;100665.84;4968500;28;20046;-91
2023/09/06 08:39:48;;;;;;;0.32;0.32;;;;;;;26.80;50.32;100677.59;4947893;28;20427;-91
2023/09/06 08:42:14;;;;;;;0.75;0.75;;;;;;;26.80;51.53;100674.75;4987836;28;20046;-92
2023/09/06 08:44:40;;;;;;;0.60;0.60;;;;;;;26.93;50.96;100667.63;4986759;28;20583;-92
2023/09/06 08:47:08;;;;;;;0.40;0.40;;;;;;;27.26;49.32;100687.13;4986277;28;20038;-92
2023/09/06 08:49:35;;;;;;;0.55;0.55;;;;;;;27.14;48.53;100688.56;4986526;28;20491;-90
2023/09/06 08:52:00;;;;;;;1.02;0.80;;;;;;;27.45;47.86;100678.59;4962083;28;20042;-91
2023/09/06 08:54:26;;;;;;;0.60;0.57;;;;;;;27.88;47.23;100684.97;4974700;28;20046;-93
2023/09/06 08:56:53;;;;;;;0.95;0.90;;;;;;;27.95;44.93;100686.41;4978810;28;20414;-92
2023/09/06 08:59:22;;;;;;;0.85;0.77;;;;;;;28.23;45.28;100689.59;4971845;28;20047;-91
2023/09/06 09:01:47;;;;;;;2.55;1.65;;;;;;;28.52;44.72;100697.13;4984149;28;20053;-92
2023/09/06 09:04:13;;;;;;;0.82;0.82;;;;;;;28.55;43.02;100686.72;4986697;28;20042;-93
2023/09/06 09:06:48;;;;;;;1.85;0.88;;;;;;;27.77;43.74;100688.00;4988495;28;20093;-92
2023/09/06 09:09:17;;;;;;;0.57;0.43;;;;;;;28.02;45.59;100674.38;4972166;28;20057;-93
2023/09/06 09:11:53;;;;;;;0.73;0.73;;;;;;;27.56;43.68;100682.09;4961017;28;20035;-92
2023/09/06 09:14:23;;;;;;;0.88;0.88;;;;;;;27.42;44.05;100691.09;4972641;28;20046;-92
2023/09/06 09:16:57;;;;;;;1.35;0.95;;;;;;;27.43;44.95;100687.69;4986617;28;20054;-91
2023/09/06 09:19:23;;;;;;;0.40;0.40;;;;;;;27.55;45.27;100685.47;4987660;28;20097;-91
2023/09/06 09:21:52;;;;;;;0.40;0.40;;;;;;;27.67;45.62;100684.75;4985759;28;20043;-92
2023/09/06 09:24:26;;;;;;;0.50;0.50;;;;;;;27.91;45.43;100680.25;4954789;28;20485;-93
2023/09/06 09:26:53;;;;;;;1.35;1.23;;;;;;;28.28;45.07;100674.47;4973393;28;20050;-92
2023/09/06 09:29:18;;;;;;;0.50;0.50;;;;;;;28.47;44.47;100692.28;4953420;28;20076;-92
2023/09/06 09:32:03;;;;;;;0.77;0.75;;;;;;;28.56;43.25;100693.94;4984872;28;20093;-91
2023/09/06 09:34:29;;;;;;;2.03;1.10;;;;;;;28.68;44.55;100684.63;4989729;28;20046;-93
2023/09/06 09:36:54;;;;;;;0.60;0.60;;;;;;;28.64;44.56;100672.75;4956964;28;20049;-93
2023/09/06 09:39:26;;;;;;;0.95;0.95;;;;;;;28.64;43.89;100672.75;4964089;28;20511;-92
2023/09/06 09:41:52;;;;;;;0.63;0.63;;;;;;;28.70;43.96;100664.13;4978027;28;20118;-93
2023/09/06 09:44:19;;;;;;;1.40;1.02;;;;;;;28.72;43.51;100667.97;4981378;28;20120;-93
2023/09/06 09:46:45;;;;;;;0.70;0.70;;;;;;;29.07;43.74;100665.97;4956508;28;20062;-92
2023/09/06 09:49:12;;;;;;;0.75;0.60;;;;;;;29.34;43.64;100676.06;4952951;28;20039;-93
2023/09/06 09:51:39;;;;;;;1.45;0.60;;;;;;;29.54;41.38;100672.47;4970201;28;20053;-92
2023/09/06 09:54:05;;;;;;;1.00;0.90;;;;;;;29.62;39.23;100676.19;4951799;28;20052;-93
2023/09/06 09:56:33;;;;;;;1.13;0.88;;;;;;;29.38;39.05;100670.78;4954308;28;20050;-93
2023/09/06 09:59:00;;;;;;;0.30;0.30;;;;;;;29.48;39.50;100663.25;4968612;28;20030;-92
2023/09/06 10:01:28;;;;;;;0.73;0.73;;;;;;;29.47;38.89;100666.69;4984918;28;20209;-92
2023/09/06 10:03:58;;;;;;;0.50;0.47;;;;;;;29.48;37.97;100656.78;4965121;28;20483;-93
2023/09/06 10:06:26;;;;;;;0.65;0.65;;;;;;;29.45;37.62;100657.88;4972469;28;20078;-92
2023/09/06 10:08:54;;;;;;;0.32;0.32;;;;;;;29.63;38.12;100669.16;4962352;28;20038;-93
2023/09/06 10:11:20;;;;;;;0.77;0.70;;;;;;;29.74;38.51;100650.19;5007841;28;20530;-93
2023/09/06 10:13:47;;;;;;;0.20;0.20;;;;;;;29.60;38.10;100658.81;4956843;28;20121;-93
2023/09/06 10:16:13;;;;;;;1.17;1.08;;;;;;;29.12;38.93;100659.34;4940700;28;20038;-92
2023/09/06 10:18:39;;;;;;;0.68;0.68;;;;;;;29.15;40.06;100661.13;4982104;28;20050;-93
2023/09/06 10:21:06;;;;;;;1.55;0.57;;;;;;;29.15;39.12;100658.28;4955904;28;20046;-93
2023/09/06 10:23:32;;;;;;;0.50;0.50;;;;;;;29.27;40.30;100648.13;4961323;28;20474;-94
2023/09/06 10:25:59;;;;;;;1.02;0.93;;;;;;;29.87;38.77;100653.78;4969454;28;20042;-92
2023/09/06 10:28:25;;;;;;;0.75;0.75;;;;;;;29.55;36.89;100651.16;4960856;28;20081;-93
2023/09/06 10:30:57;;;;;;;0.85;0.50;;;;;;;29.73;38.22;100649.41;4985296;28;20043;-93
2023/09/06 10:33:31;;;;;;;0.45;0.45;;;;;;;29.94;37.02;100646.59;4989426;28;20046;-92
2023/09/06 10:35:57;;;;;;;0.40;0.40;;;;;;;29.89;36.77;100644.63;4971974;28;20470;-92
2023/09/06 10:38:23;;;;;;;0.90;0.88;;;;;;;29.91;36.51;100642.78;4955935;28;20698;-92
2023/09/06 10:40:51;;;;;;;0.80;0.80;;;;;;;30.00;37.00;100641.53;4986030;28;20055;-93
2023/09/06 10:43:17;;;;;;;4.22;0.75;;;;;;;30.03;35.50;100643.25;4985149;28;20041;-93
2023/09/06 10:46:07;;;;;;;0.45;0.45;;;;;;;30.17;35.98;100647.56;4978093;28;20042;-92
2023/09/06 10:48:33;;;;;;;0.32;0.32;;;;;;;30.23;34.36;100636.75;5003619;28;20039;-92
2023/09/06 10:51:06;;;;;;;0.52;0.52;;;;;;;29.57;35.13;100651.34;4968415;28;20045;-91
2023/09/06 10:53:38;;;;;;;0.70;0.60;;;;;;;29.42;35.79;100636.13;4987901;28;20138;-91
2023/09/06 10:56:07;;;;;;;2.43;1.97;;;;;;;29.20;36.77;100640.22;4954673;28;20046;-93
2023/09/06 10:58:37;;;;;;;0.60;0.60;;;;;;;28.98;36.33;100637.88;4953961;28;20138;-92
2023/09/06 11:01:12;;;;;;;0.63;0.63;;;;;;;28.86;35.63;100636.56;4986844;28;20048;-92
2023/09/06 11:03:38;;;;;;;0.52;0.52;;;;;;;28.88;37.62;100639.63;4990569;28;20508;-91
2023/09/06 11:06:06;;;;;;;0.43;0.43;;;;;;;29.18;35.81;100640.78;4988084;28;20041;-92
2023/09/06 11:08:33;;;;;;;0.50;0.50;;;;;;;28.75;36.03;100642.50;4972741;28;20121;-92
2023/09/06 11:11:09;;;;;;;0.30;0.30;;;;;;;28.54;36.42;100634.56;4991417;28;20030;-93
2023/09/06 11:13:36;;;;;;;0.45;0.45;;;;;;;28.99;36.19;100639.41;4973916;28;20046;-92
2023/09/06 11:16:03;;;;;;;0.35;0.35;;;;;;;29.35;35.25;100645.41;4991771;28;20038;-91
2023/09/06 11:18:32;;;;;;;0.85;0.65;;;;;;;29.28;35.03;100620.34;4991693;28;20109;-92
2023/09/06 11:20:59;;;;;;;0.40;0.40;;;;;;;29.60;35.78;100618.78;4993169;28;20273;-94
2023/09/06 11:23:26;;;;;;;0.50;0.50;;;;;;;30.01;34.71;100605.84;4977989;28;20046;-93